Time;durP1;ratioP1;P1;durP2;ratioP2;P2;SDS_P1;SDS_P2;PMS_P1;PMS_P2;Temp;Humidity;BMP_temperature;BMP_pressure;BME280_temperature;BME280_humidity;BME280_pressure;Samples;Min_cycle;Max_cycle;Signal;HPM_P1;HPM_P2
2023/12/18 05:06:29;;;;;;;38.97;27.25;;;;;;;3.82;97.71;102349.28;5605165;31;125348;-55
2023/12/18 05:09:31;;;;;;;34.07;25.43;;;;;;;3.82;97.71;102349.28;5585931;31;33779;-56
2023/12/18 05:12:33;;;;;;;112.57;29.58;;;;;;;3.24;92.31;102347.31;5587458;31;34380;-56
2023/12/18 05:15:37;;;;;;;44.88;26.95;;;;;;;3.15;99.86;102352.91;5583757;31;33105;-56
2023/12/18 05:18:40;;;;;;;66.43;27.48;;;;;;;3.15;99.11;102359.03;5583374;31;33623;-56
2023/12/18 05:21:43;;;;;;;52.65;27.33;;;;;;;3.13;100.00;102362.88;5583024;31;34300;-56
2023/12/18 05:24:45;;;;;;;58.55;26.33;;;;;;;3.15;100.00;102350.28;5583328;32;33747;-56
2023/12/18 05:27:48;;;;;;;764.22;78.03;;;;;;;3.14;96.80;102351.25;5582889;31;33644;-56
2023/12/18 05:30:50;;;;;;;35.17;23.62;;;;;;;3.56;100.00;102353.25;5583304;32;34302;-56
2023/12/18 05:33:52;;;;;;;36.35;23.55;;;;;;;3.52;100.00;102357.28;5583530;32;33544;-56
2023/12/18 05:36:55;;;;;;;30.98;22.70;;;;;;;3.41;94.85;102352.44;5582624;31;33565;-56
2023/12/18 05:39:57;;;;;;;32.47;22.98;;;;;;;3.36;86.39;102353.00;5583493;32;34283;-56
2023/12/18 05:43:00;;;;;;;816.53;91.05;;;;;;;3.45;88.95;102353.72;5582081;32;34326;-56
2023/12/18 05:46:03;;;;;;;98.25;30.67;;;;;;;3.58;100.00;102356.56;5582596;31;33052;-56
2023/12/18 05:49:06;;;;;;;38.40;26.00;;;;;;;3.46;100.00;102352.72;5567469;31;34295;-56
2023/12/18 05:52:09;;;;;;;72.68;28.42;;;;;;;3.48;89.31;102358.66;5563806;32;33570;-56
2023/12/18 05:55:13;;;;;;;76.82;32.42;;;;;;;3.36;100.00;102360.12;5563641;32;34366;-56
2023/12/18 05:58:15;;;;;;;41.75;28.23;;;;;;;3.41;100.00;102353.28;5571157;31;34253;-56
2023/12/18 06:01:19;;;;;;;106.55;31.83;;;;;;;3.32;87.70;102356.22;5582444;31;33606;-56
2023/12/18 06:04:21;;;;;;;77.00;28.87;;;;;;;3.19;98.76;102354.19;5581935;31;33832;-56
2023/12/18 06:07:24;;;;;;;43.38;27.85;;;;;;;3.09;100.00;102353.66;5580407;31;34349;-56
2023/12/18 06:10:26;;;;;;;45.33;27.87;;;;;;;3.15;95.82;102352.91;5580534;31;33557;-56
2023/12/18 06:13:29;;;;;;;62.75;28.70;;;;;;;3.30;89.21;102348.44;5580773;31;33710;-56
2023/12/18 06:16:31;;;;;;;44.53;30.50;;;;;;;3.19;99.22;102351.53;5567271;31;33608;-56
2023/12/18 06:19:34;;;;;;;227.82;41.05;;;;;;;3.20;90.18;102359.28;5566908;32;33684;-56
2023/12/18 06:22:39;;;;;;;42.03;26.87;;;;;;;3.15;98.10;102355.56;5568637;31;34454;-56
2023/12/18 06:25:43;;;;;;;42.47;26.67;;;;;;;3.18;91.47;102349.88;5567529;31;34403;-56
2023/12/18 06:28:45;;;;;;;276.52;44.45;;;;;;;3.31;93.53;102363.31;5563682;31;33620;-56
2023/12/18 06:31:48;;;;;;;334.27;46.88;;;;;;;3.27;100.00;102370.00;5566806;32;33893;-56
2023/12/18 06:34:51;;;;;;;92.00;29.25;;;;;;;3.45;100.00;102374.94;5568414;32;34378;-56
2023/12/18 06:37:53;;;;;;;83.93;28.17;;;;;;;3.40;100.00;102374.66;5565090;31;34205;-56
2023/12/18 06:40:56;;;;;;;37.42;25.65;;;;;;;3.19;98.32;102386.00;5566967;32;33685;-56
2023/12/18 06:43:58;;;;;;;33.75;24.15;;;;;;;3.25;95.19;102386.09;5567658;32;34380;-55
2023/12/18 06:47:00;;;;;;;38.20;25.67;;;;;;;3.17;92.58;102393.28;5566005;31;34240;-56
2023/12/18 06:50:03;;;;;;;203.73;34.95;;;;;;;3.26;92.15;102390.38;5561974;31;33534;-56
2023/12/18 06:53:05;;;;;;;40.97;24.85;;;;;;;3.16;100.00;102381.06;5567815;31;33553;-56
2023/12/18 06:56:08;;;;;;;186.00;34.85;;;;;;;3.20;96.29;102385.00;5567098;32;33673;-56
2023/12/18 06:59:11;;;;;;;33.08;23.50;;;;;;;3.27;100.00;102381.41;5566600;32;33686;-56
2023/12/18 07:02:13;;;;;;;35.35;23.02;;;;;;;3.33;95.94;102390.47;5565627;31;33697;-56
2023/12/18 07:05:16;;;;;;;162.48;32.63;;;;;;;3.24;92.66;102392.37;5559552;31;33578;-56
2023/12/18 07:08:18;;;;;;;42.00;23.75;;;;;;;3.36;100.00;102389.28;5557507;31;33552;-56
2023/12/18 07:11:21;;;;;;;170.52;31.92;;;;;;;3.37;92.86;102386.44;5560586;31;33316;-56
2023/12/18 07:14:24;;;;;;;38.28;23.92;;;;;;;3.38;100.00;102389.91;5568942;32;34331;-56
2023/12/18 07:17:26;;;;;;;33.75;24.02;;;;;;;3.38;98.03;102395.22;5568070;31;33598;-55
2023/12/18 07:20:29;;;;;;;35.35;24.50;;;;;;;3.63;100.00;102393.13;5567060;32;33247;-56
2023/12/18 07:23:31;;;;;;;35.40;24.80;;;;;;;3.62;94.46;102396.78;5559505;31;34265;-57
2023/12/18 07:26:33;;;;;;;35.88;23.27;;;;;;;3.57;95.22;102396.50;5562286;32;33690;-55
2023/12/18 07:29:36;;;;;;;55.83;26.75;;;;;;;3.60;94.84;102399.59;5563396;31;33590;-56
2023/12/18 07:32:38;;;;;;;41.90;26.60;;;;;;;3.50;100.00;102399.06;5561129;31;34268;-56
2023/12/18 07:35:41;;;;;;;35.63;25.05;;;;;;;3.48;100.00;102398.44;5567178;32;34254;-55
2023/12/18 07:38:45;;;;;;;37.13;24.73;;;;;;;3.55;97.26;102391.41;5570953;31;34293;-56
2023/12/18 07:41:49;;;;;;;68.90;28.97;;;;;;;3.67;98.25;102383.78;5551254;31;34230;-55
2023/12/18 07:44:53;;;;;;;42.28;26.98;;;;;;;3.74;100.00;102384.69;5552838;31;33722;-56
2023/12/18 07:47:56;;;;;;;41.20;28.12;;;;;;;3.74;100.00;102385.53;5567321;31;33966;-57
2023/12/18 07:50:58;;;;;;;48.80;28.33;;;;;;;3.86;98.00;102382.37;5561370;31;33819;-56
2023/12/18 07:54:03;;;;;;;44.90;29.73;;;;;;;4.04;100.00;102387.28;5568186;32;33660;-55
2023/12/18 07:57:07;;;;;;;47.20;32.10;;;;;;;4.02;99.39;102387.47;5562513;32;34396;-56
2023/12/18 08:00:10;;;;;;;42.67;31.58;;;;;;;3.97;99.15;102387.19;5558033;31;33776;-55
2023/12/18 08:03:12;;;;;;;47.97;33.25;;;;;;;4.03;97.33;102386.44;5556300;32;34381;-55
2023/12/18 08:06:15;;;;;;;48.15;34.83;;;;;;;4.14;93.87;102374.50;5557653;32;33615;-56
2023/12/18 08:09:17;;;;;;;62.55;36.90;;;;;;;4.25;90.17;102382.00;5552067;32;33152;-56
2023/12/18 08:12:21;;;;;;;56.65;39.25;;;;;;;4.28;100.00;102375.50;5561682;31;33575;-56
2023/12/18 08:15:23;;;;;;;52.67;36.88;;;;;;;4.58;100.00;102377.00;5562333;31;33609;-56
2023/12/18 08:18:26;;;;;;;54.38;38.00;;;;;;;4.48;99.09;102379.97;5562026;32;33630;-56
2023/12/18 08:21:28;;;;;;;61.92;40.03;;;;;;;4.54;97.11;102373.09;5566243;31;34240;-56
2023/12/18 08:24:31;;;;;;;55.60;39.08;;;;;;;4.59;100.00;102378.63;5566955;31;32067;-56
2023/12/18 08:27:34;;;;;;;55.55;37.55;;;;;;;4.55;100.00;102385.34;5567138;32;33716;-56
2023/12/18 08:30:37;;;;;;;57.92;40.00;;;;;;;4.77;94.58;102378.19;5566617;31;33541;-55
2023/12/18 08:33:42;;;;;;;60.22;41.97;;;;;;;4.69;97.01;102363.19;5566312;32;33726;-56
2023/12/18 08:36:44;;;;;;;60.22;39.67;;;;;;;4.90;100.00;102365.00;5568508;32;33649;-56
2023/12/18 08:39:47;;;;;;;63.58;44.42;;;;;;;4.91;95.44;102366.63;5566011;32;33638;-55
2023/12/18 08:42:49;;;;;;;58.83;41.58;;;;;;;4.94;100.00;102368.09;5557324;31;33631;-55
2023/12/18 08:45:51;;;;;;;56.55;41.00;;;;;;;5.07;100.00;102373.50;5561601;32;33681;-55
2023/12/18 08:48:54;;;;;;;54.78;40.67;;;;;;;5.24;100.00;102376.66;5563452;32;34275;-55
2023/12/18 08:51:56;;;;;;;53.65;38.75;;;;;;;5.36;100.00;102372.44;5559653;31;34319;-56
2023/12/18 08:54:59;;;;;;;54.85;38.30;;;;;;;5.37;89.10;102378.59;5566962;31;34355;-56
2023/12/18 08:58:01;;;;;;;52.67;38.55;;;;;;;5.37;95.16;102367.94;5563728;32;33571;-55
2023/12/18 09:01:04;;;;;;;54.17;38.33;;;;;;;5.75;100.00;102378.94;5559755;31;34327;-55
2023/12/18 09:04:06;;;;;;;50.42;36.78;;;;;;;5.98;100.00;102386.63;5563369;31;33791;-55
2023/12/18 09:07:09;;;;;;;50.90;37.22;;;;;;;6.12;100.00;102377.69;5572673;31;33558;-56
2023/12/18 09:10:17;;;;;;;54.60;37.20;;;;;;;5.97;94.75;102373.53;5564051;31;33634;-56
2023/12/18 09:13:20;;;;;;;51.30;38.45;;;;;;;6.32;100.00;102375.06;5557524;31;33284;-55
2023/12/18 09:16:22;;;;;;;53.53;37.05;;;;;;;6.52;100.00;102377.75;5558810;32;32101;-56
2023/12/18 09:19:25;;;;;;;49.97;39.85;;;;;;;6.59;100.00;102364.44;5556588;32;33658;-55
2023/12/18 09:22:28;;;;;;;52.33;38.33;;;;;;;6.63;100.00;102360.31;5549825;32;33702;-55
2023/12/18 09:25:30;;;;;;;52.00;39.28;;;;;;;6.55;100.00;102368.50;5551715;32;33670;-55
2023/12/18 09:28:33;;;;;;;46.45;36.80;;;;;;;6.55;100.00;102366.66;5549448;32;33224;-55
2023/12/18 09:31:35;;;;;;;54.88;38.83;;;;;;;6.46;100.00;102361.75;5554804;31;33588;-56
2023/12/18 09:34:38;;;;;;;52.60;39.97;;;;;;;6.47;95.96;102366.06;5567381;31;33408;-56
2023/12/18 09:37:41;;;;;;;50.65;37.28;;;;;;;6.64;100.00;102350.47;5558968;32;33430;-56
2023/12/18 09:40:44;;;;;;;61.42;37.60;;;;;;;6.66;87.57;102343.91;5552590;32;33836;-56
2023/12/18 09:43:47;;;;;;;57.22;39.08;;;;;;;6.75;100.00;102336.50;5555349;31;34419;-56
2023/12/18 09:46:49;;;;;;;53.25;38.03;;;;;;;6.91;100.00;102332.59;5562015;31;34438;-55
2023/12/18 09:49:54;;;;;;;52.55;36.63;;;;;;;6.75;86.78;102328.53;5557250;32;33532;-56
2023/12/18 09:53:07;;;;;;;50.83;38.42;;;;;;;6.63;92.21;102324.87;5561100;31;33709;-56
2023/12/18 09:56:10;;;;;;;50.55;37.55;;;;;;;6.56;83.53;102317.69;5554586;31;34301;-56
2023/12/18 09:59:12;;;;;;;52.38;40.15;;;;;;;6.91;100.00;102317.41;5561832;31;33548;-56
2023/12/18 10:02:17;;;;;;;49.92;39.40;;;;;;;7.09;100.00;102319.47;5565092;31;33865;-56
2023/12/18 10:05:19;;;;;;;57.50;39.28;;;;;;;7.14;100.00;102321.47;5571932;31;33510;-56
2023/12/18 10:08:21;;;;;;;55.58;39.90;;;;;;;6.89;83.93;102316.84;5560425;31;32166;-56
2023/12/18 10:11:25;;;;;;;53.63;38.78;;;;;;;7.08;100.00;102312.47;5558339;31;34437;-56
2023/12/18 10:14:29;;;;;;;55.90;40.15;;;;;;;7.01;83.55;102309.81;5558554;31;33721;-56
2023/12/18 10:17:33;;;;;;;49.42;38.22;;;;;;;7.04;97.09;102304.06;5560543;31;32257;-57
2023/12/18 10:20:40;;;;;;;52.33;39.27;;;;;;;7.02;88.99;102305.31;5561475;31;33116;-56
2023/12/18 10:23:43;;;;;;;54.35;38.85;;;;;;;6.98;94.38;102312.88;5553269;32;34308;-56
2023/12/18 10:26:48;;;;;;;54.45;40.05;;;;;;;7.27;100.00;102305.44;5562944;31;33324;-55
2023/12/18 10:29:53;;;;;;;49.97;38.20;;;;;;;7.50;100.00;102308.41;5567049;31;34336;-56
2023/12/18 10:33:00;;;;;;;51.17;38.47;;;;;;;7.25;93.73;102294.16;5568782;32;34396;-56
2023/12/18 10:36:08;;;;;;;46.92;37.78;;;;;;;7.33;91.88;102293.09;5569223;32;33442;-56
2023/12/18 10:39:13;;;;;;;70.07;36.92;;;;;;;7.38;100.00;102288.75;5562153;32;34359;-57
2023/12/18 10:42:35;;;;;;;48.87;36.37;;;;;;;7.56;93.16;102284.59;5561217;32;34408;-55
2023/12/18 10:45:39;;;;;;;50.67;38.22;;;;;;;7.60;100.00;102285.78;5566497;32;33661;-55
2023/12/18 10:48:43;;;;;;;49.13;37.40;;;;;;;7.58;90.31;102279.84;5569483;32;33604;-56
2023/12/18 10:51:46;;;;;;;51.85;38.25;;;;;;;7.66;99.40;102282.28;5569759;32;34292;-56
2023/12/18 10:54:50;;;;;;;53.13;39.28;;;;;;;7.61;81.12;102274.88;5568294;32;34512;-56
2023/12/18 10:57:57;;;;;;;57.00;42.05;;;;;;;7.54;92.32;102271.44;5568638;32;33769;-56
2023/12/18 11:01:03;;;;;;;52.60;39.85;;;;;;;7.51;80.15;102258.53;5569265;32;33613;-56
2023/12/18 11:04:06;;;;;;;54.05;39.15;;;;;;;7.50;77.76;102259.56;5569355;32;34365;-56
2023/12/18 11:07:10;;;;;;;53.87;40.95;;;;;;;7.51;91.43;102262.00;5568106;32;34451;-56
2023/12/18 11:10:12;;;;;;;49.72;39.58;;;;;;;7.53;78.50;102251.13;5569491;32;33643;-56
2023/12/18 11:13:29;;;;;;;54.33;41.65;;;;;;;7.26;77.20;102243.25;5568192;32;33984;-56
2023/12/18 11:16:58;;;;;;;54.42;41.13;;;;;;;7.92;100.00;102244.72;5568234;32;33744;-56
2023/12/18 11:20:17;;;;;;;55.35;40.35;;;;;;;7.61;86.25;102242.03;5562628;32;34425;-56
2023/12/18 11:23:20;;;;;;;55.63;41.00;;;;;;;8.09;100.00;102234.31;5567653;32;33945;-56
2023/12/18 11:26:27;;;;;;;56.70;42.33;;;;;;;8.15;100.00;102235.31;5568633;32;33430;-56
2023/12/18 11:29:42;;;;;;;56.20;39.88;;;;;;;8.49;100.00;102233.19;5568515;32;34416;-56
2023/12/18 11:32:46;;;;;;;54.58;40.42;;;;;;;8.71;100.00;102226.37;5564708;32;34372;-56
2023/12/18 11:35:49;;;;;;;57.38;40.95;;;;;;;8.50;99.81;102208.91;5555240;32;34916;-56
2023/12/18 11:38:52;;;;;;;57.85;42.33;;;;;;;8.52;99.02;102214.03;5573784;31;33531;-56
2023/12/18 11:41:54;;;;;;;53.58;41.67;;;;;;;8.58;99.30;102210.47;5548825;32;33669;-57
2023/12/18 11:45:03;;;;;;;51.72;41.47;;;;;;;8.78;100.00;102202.25;5563121;32;34359;-56
2023/12/18 11:48:07;;;;;;;56.65;42.00;;;;;;;8.89;100.00;102199.63;5568882;32;34319;-57
2023/12/18 11:51:13;;;;;;;49.70;38.38;;;;;;;8.91;100.00;102194.88;5563109;32;33653;-56
2023/12/18 11:54:16;;;;;;;47.22;38.95;;;;;;;8.95;98.58;102200.59;5566271;32;34414;-56
2023/12/18 11:57:21;;;;;;;50.38;37.90;;;;;;;8.83;87.92;102197.03;5554237;32;33609;-57
2023/12/18 12:00:29;;;;;;;45.88;37.65;;;;;;;8.79;97.69;102185.16;5557168;32;34343;-57
2023/12/18 12:03:33;;;;;;;45.53;37.17;;;;;;;9.02;100.00;102193.28;5566660;32;33661;-56
2023/12/18 12:06:37;;;;;;;53.58;39.75;;;;;;;9.06;100.00;102172.25;5567824;32;33844;-56
2023/12/18 12:09:43;;;;;;;;;;;;;;;8.81;80.55;102172.37;5562780;32;34301;-56
2023/12/18 12:12:58;;;;;;;55.08;39.13;;;;;;;8.86;96.48;102170.66;5562049;32;34770;-56
2023/12/18 12:16:01;;;;;;;56.95;40.80;;;;;;;8.94;94.52;102158.84;5562254;32;33824;-56
2023/12/18 12:19:04;;;;;;;49.20;39.65;;;;;;;8.98;83.62;102159.22;5565108;32;33774;-56
2023/12/18 12:22:09;;;;;;;47.97;37.85;;;;;;;9.09;91.19;102153.09;5563669;32;33267;-57
2023/12/18 12:25:11;;;;;;;48.87;40.15;;;;;;;9.40;100.00;102155.53;5566356;32;33713;-57
2023/12/18 12:28:15;;;;;;;49.88;38.17;;;;;;;9.32;87.72;102152.34;5561863;32;33441;-57
2023/12/18 12:31:18;;;;;;;48.00;39.60;;;;;;;9.55;100.00;102140.88;5560249;32;33315;-56
2023/12/18 12:34:21;;;;;;;46.85;38.38;;;;;;;9.67;100.00;102138.22;5563255;32;33724;-56
2023/12/18 12:37:23;;;;;;;49.63;39.00;;;;;;;9.40;83.16;102130.59;5563816;32;33599;-56
2023/12/18 12:40:36;;;;;;;51.63;38.28;;;;;;;9.44;90.34;102118.41;5566365;32;33720;-57
2023/12/18 12:43:38;;;;;;;48.15;38.40;;;;;;;9.49;91.01;102118.53;5566012;32;33322;-57
2023/12/18 12:46:42;;;;;;;50.80;38.17;;;;;;;9.71;100.00;102118.78;5564659;32;34347;-57
2023/12/18 12:49:46;;;;;;;51.85;39.22;;;;;;;9.58;75.94;102117.16;5565010;32;33684;-57
2023/12/18 12:52:49;;;;;;;52.78;38.70;;;;;;;9.39;73.15;102110.25;5566658;32;34448;-56
2023/12/18 12:55:53;;;;;;;48.40;38.10;;;;;;;9.41;89.16;102110.84;5567091;32;33751;-56
2023/12/18 12:58:56;;;;;;;46.05;36.60;;;;;;;9.34;81.13;102102.91;5554194;32;34482;-56
2023/12/18 13:01:58;;;;;;;47.25;35.13;;;;;;;9.28;74.63;102093.12;5558385;32;33687;-57
2023/12/18 13:05:01;;;;;;;45.10;34.70;;;;;;;9.33;87.86;102090.56;5561076;32;33627;-56
2023/12/18 13:08:04;;;;;;;46.03;35.05;;;;;;;9.37;88.28;102091.75;5562222;32;34042;-56
2023/12/18 13:11:07;;;;;;;44.15;34.58;;;;;;;9.67;99.09;102084.66;5566677;32;33704;-56
2023/12/18 13:14:10;;;;;;;40.88;32.80;;;;;;;9.91;100.00;102086.31;5564719;32;33951;-57
2023/12/18 13:17:17;;;;;;;44.13;33.25;;;;;;;9.65;85.90;102082.22;5560366;32;33467;-56
2023/12/18 13:20:20;;;;;;;46.03;33.42;;;;;;;9.86;100.00;102083.50;5561821;32;34325;-57
2023/12/18 13:23:30;;;;;;;44.38;34.50;;;;;;;9.83;100.00;102089.31;5553781;32;34337;-56
2023/12/18 13:26:33;;;;;;;38.90;31.83;;;;;;;10.04;96.84;102074.53;5565659;32;34419;-57
2023/12/18 13:29:35;;;;;;;41.80;31.33;;;;;;;10.07;95.96;102079.44;5552110;32;33652;-57
2023/12/18 13:32:39;;;;;;;48.78;34.80;;;;;;;9.96;96.35;102074.88;5560743;32;33247;-56
2023/12/18 13:35:42;;;;;;;52.42;45.92;;;;;;;9.84;88.42;102073.03;5566038;32;34363;-56
2023/12/18 13:38:44;;;;;;;51.03;42.75;;;;;;;9.91;100.00;102077.47;5562067;32;33769;-56
2023/12/18 13:41:47;;;;;;;66.35;48.20;;;;;;;9.87;90.52;102074.44;5558437;32;33959;-56
2023/12/18 13:44:49;;;;;;;47.58;35.05;;;;;;;9.84;89.94;102070.34;5564062;32;34271;-57
2023/12/18 13:47:55;;;;;;;38.92;32.58;;;;;;;9.82;76.28;102072.44;5566683;32;34416;-57
2023/12/18 13:51:00;;;;;;;36.03;26.75;;;;;;;9.82;94.42;102069.75;5565812;32;33205;-56
2023/12/18 13:54:03;;;;;;;36.50;27.65;;;;;;;9.75;79.04;102063.72;5565788;32;33674;-57
2023/12/18 13:57:05;;;;;;;44.05;27.92;;;;;;;9.64;74.24;102065.34;5565795;32;33716;-57
2023/12/18 14:00:08;;;;;;;36.15;27.20;;;;;;;9.55;77.32;102065.91;5568989;32;33515;-56
2023/12/18 14:03:15;;;;;;;32.38;27.55;;;;;;;9.74;100.00;102062.09;5557878;32;33258;-57
2023/12/18 14:06:22;;;;;;;33.75;26.20;;;;;;;9.82;94.06;102066.28;5563965;32;34388;-57
2023/12/18 14:09:25;;;;;;;34.20;28.20;;;;;;;9.76;92.45;102065.34;5560189;32;34336;-57
2023/12/18 14:12:27;;;;;;;36.20;28.77;;;;;;;9.72;87.51;102064.19;5558461;32;34307;-56
2023/12/18 14:15:29;;;;;;;37.55;30.00;;;;;;;9.77;80.25;102066.97;5555005;32;33685;-56
2023/12/18 14:18:33;;;;;;;37.25;27.33;;;;;;;9.93;100.00;102062.75;5564658;32;33748;-57
2023/12/18 14:21:36;;;;;;;34.53;26.58;;;;;;;10.09;96.92;102064.72;5555577;32;33583;-57
2023/12/18 14:24:38;;;;;;;39.95;29.25;;;;;;;10.28;99.85;102064.63;5557499;32;33744;-56
2023/12/18 14:27:41;;;;;;;33.65;28.27;;;;;;;9.99;91.87;102048.44;5569137;32;33716;-56
2023/12/18 14:30:44;;;;;;;43.60;31.65;;;;;;;9.91;97.15;102058.72;5565831;32;33442;-57
2023/12/18 14:33:46;;;;;;;43.45;36.88;;;;;;;9.70;81.11;102057.41;5551676;32;34348;-56
2023/12/18 14:36:49;;;;;;;42.80;32.03;;;;;;;9.79;91.70;102054.16;5564032;32;33575;-57
2023/12/18 14:39:51;;;;;;;40.40;32.33;;;;;;;9.79;87.17;102059.50;5549783;32;33619;-56
2023/12/18 14:42:54;;;;;;;43.33;31.23;;;;;;;9.48;82.97;102052.66;5549336;32;34324;-56
2023/12/18 14:45:57;;;;;;;44.95;31.17;;;;;;;9.25;79.23;102061.47;5552654;32;33680;-56
2023/12/18 14:49:02;;;;;;;35.15;28.08;;;;;;;9.27;94.12;102055.88;5555316;32;33735;-56
2023/12/18 14:52:05;;;;;;;37.90;27.98;;;;;;;9.32;95.46;102062.16;5553397;32;33683;-56
2023/12/18 14:55:07;;;;;;;37.63;28.20;;;;;;;9.21;86.45;102052.28;5564979;32;33249;-57
2023/12/18 14:58:10;;;;;;;42.30;36.67;;;;;;;9.23;87.66;102054.69;5569107;32;33713;-56
2023/12/18 15:01:12;;;;;;;38.17;32.13;;;;;;;9.14;98.35;102067.63;5569241;32;33323;-56
2023/12/18 15:04:15;;;;;;;42.40;35.92;;;;;;;9.09;89.11;102075.50;5564464;32;34349;-56
2023/12/18 15:07:28;;;;;;;36.20;29.17;;;;;;;9.07;96.01;102077.56;5564190;32;33883;-57
2023/12/18 15:10:32;;;;;;;39.83;29.35;;;;;;;9.24;100.00;102081.25;5557916;32;34413;-57
2023/12/18 15:13:35;;;;;;;33.72;27.23;;;;;;;9.10;86.55;102077.94;5568740;32;34410;-57
2023/12/18 15:16:38;;;;;;;36.53;27.50;;;;;;;8.96;90.53;102084.53;5568081;32;33746;-56
2023/12/18 15:19:40;;;;;;;36.42;28.05;;;;;;;8.86;96.59;102084.25;5568947;32;33667;-56
2023/12/18 15:22:43;;;;;;;36.15;27.30;;;;;;;8.70;80.31;102089.19;5555050;32;33717;-56
2023/12/18 15:25:46;;;;;;;39.88;28.38;;;;;;;8.64;79.88;102084.75;5549630;32;34257;-56
2023/12/18 15:28:49;;;;;;;37.58;27.55;;;;;;;8.43;83.50;102093.22;5557955;31;34436;-56
2023/12/18 15:31:51;;;;;;;40.95;29.75;;;;;;;8.37;81.38;102099.44;5549396;32;33618;-57
2023/12/18 15:34:54;;;;;;;40.00;27.75;;;;;;;8.41;79.52;102096.12;5549371;32;33397;-57
2023/12/18 15:37:56;;;;;;;38.03;28.23;;;;;;;8.27;81.67;102091.94;5549854;32;33682;-56
2023/12/18 15:40:59;;;;;;;42.33;28.87;;;;;;;8.30;80.51;102093.34;5549400;32;33584;-57
2023/12/18 15:44:01;;;;;;;38.70;28.08;;;;;;;8.20;80.93;102083.19;5549727;32;34362;-57
2023/12/18 15:47:04;;;;;;;37.15;28.02;;;;;;;8.17;80.68;102080.94;5549200;32;33802;-56
2023/12/18 15:50:07;;;;;;;35.30;27.23;;;;;;;8.16;80.37;102079.31;5553323;32;34427;-56
2023/12/18 15:53:10;;;;;;;39.85;29.50;;;;;;;8.16;79.94;102064.09;5566894;32;33737;-57
2023/12/18 15:56:12;;;;;;;39.53;30.10;;;;;;;8.20;80.13;102064.47;5568740;32;34390;-56
2023/12/18 15:59:15;;;;;;;37.75;29.33;;;;;;;8.09;80.24;102060.69;5568216;32;34501;-56
2023/12/18 16:02:18;;;;;;;43.38;31.05;;;;;;;8.07;94.05;102062.75;5568904;32;33639;-56
2023/12/18 16:07:31;;;;;;;42.45;31.15;;;;;;;8.41;87.42;102065.91;5613750;31;189577;-56
2023/12/18 16:10:37;;;;;;;39.03;29.65;;;;;;;8.41;87.42;102065.91;5603016;31;34033;-56
2023/12/18 16:13:39;;;;;;;39.92;30.88;;;;;;;8.06;100.00;102066.47;5601914;31;33676;-56
2023/12/18 16:16:42;;;;;;;47.35;32.35;;;;;;;7.62;95.87;102072.88;5601859;31;34224;-56
2023/12/18 16:19:44;;;;;;;45.00;32.22;;;;;;;7.58;84.47;102074.34;5603289;31;33608;-56
2023/12/18 16:22:47;;;;;;;46.97;34.15;;;;;;;7.52;83.68;102079.53;5603300;31;33281;-56
2023/12/18 16:25:49;;;;;;;46.08;32.65;;;;;;;7.44;96.20;102078.97;5603579;31;33524;-56
2023/12/18 16:28:51;;;;;;;44.83;31.62;;;;;;;7.52;85.53;102068.84;5603291;31;33653;-56
2023/12/18 16:31:54;;;;;;;44.88;32.15;;;;;;;7.47;100.00;102066.00;5603326;31;33645;-56
2023/12/18 16:34:56;;;;;;;48.22;32.60;;;;;;;7.44;100.00;102076.28;5603267;31;34156;-56
2023/12/18 16:37:59;;;;;;;40.80;31.65;;;;;;;7.25;91.77;102070.06;5603471;31;33830;-56
2023/12/18 16:41:02;;;;;;;43.50;30.58;;;;;;;7.24;85.89;102071.13;5603296;31;34326;-56
2023/12/18 16:44:04;;;;;;;44.75;31.42;;;;;;;7.23;100.00;102067.63;5603376;31;33598;-56
2023/12/18 16:47:07;;;;;;;41.50;32.17;;;;;;;7.35;100.00;102070.44;5603110;31;33741;-57
2023/12/18 16:52:59;;;;;;;52.95;36.22;;;;;;;7.54;92.74;102077.44;5606048;31;82630;-56
2023/12/18 16:56:02;;;;;;;52.85;39.33;;;;;;;7.54;92.74;102077.44;5583768;31;33324;-55
2023/12/18 16:59:04;;;;;;;55.58;40.60;;;;;;;6.98;97.91;102062.25;5583752;31;34104;-56
2023/12/18 17:02:06;;;;;;;55.17;42.20;;;;;;;7.03;100.00;102078.44;5584002;32;34291;-56
2023/12/18 17:05:09;;;;;;;61.25;46.37;;;;;;;7.09;100.00;102079.44;5583661;31;34223;-56
